Time;durP1;ratioP1;P1;durP2;ratioP2;P2;SDS_P1;SDS_P2;PMS_P1;PMS_P2;Temp;Humidity;BMP_temperature;BMP_pressure;BME280_temperature;BME280_humidity;BME280_pressure;Samples;Min_cycle;Max_cycle;Signal;HPM_P1;HPM_P2
2023/04/15 00:00:10;;;;;;;8.93;4.20;;;;;;;7.18;81.44;93870.06;4989064;28;20745;-73
2023/04/15 00:02:37;;;;;;;5.85;2.78;;;;;;;7.03;82.25;93853.34;4957674;28;20206;-73
2023/04/15 00:05:06;;;;;;;4.72;2.65;;;;;;;7.04;82.38;93871.06;4969701;28;20297;-72
2023/04/15 00:07:33;;;;;;;14.43;3.45;;;;;;;7.19;82.72;93877.03;4988410;28;20253;-73
2023/04/15 00:10:03;;;;;;;3.38;1.73;;;;;;;7.07;82.32;93891.97;4987816;28;20201;-75
2023/04/15 00:12:30;;;;;;;7.22;2.63;;;;;;;6.95;81.23;93910.72;4972469;28;20214;-71
2023/04/15 00:14:57;;;;;;;3.22;2.00;;;;;;;6.98;80.04;93910.03;4973258;28;20260;-74
2023/04/15 00:17:24;;;;;;;55.63;20.80;;;;;;;7.03;80.04;93907.19;4992297;28;20206;-72
2023/04/15 00:19:51;;;;;;;12.93;4.95;;;;;;;7.12;80.23;93893.69;4992240;28;20571;-72
2023/04/15 00:22:20;;;;;;;7.80;3.63;;;;;;;7.33;80.81;93899.13;4990158;28;20198;-73
2023/04/15 00:24:47;;;;;;;5.68;2.45;;;;;;;7.20;80.89;93851.69;4970554;28;20199;-72
2023/04/15 00:27:14;;;;;;;5.07;2.45;;;;;;;7.54;80.28;93894.56;4963732;28;20243;-73
2023/04/15 00:29:41;;;;;;;6.57;2.47;;;;;;;7.62;81.05;93896.44;4980054;28;20238;-72
2023/04/15 00:32:08;;;;;;;4.03;2.38;;;;;;;7.37;81.16;93851.59;4991605;28;20357;-72
2023/04/15 00:34:35;;;;;;;7.63;2.63;;;;;;;7.64;81.63;93888.81;4988015;28;20767;-72
2023/04/15 00:37:02;;;;;;;6.32;3.38;;;;;;;7.76;81.45;93886.22;4982170;28;20661;-72
2023/04/15 00:39:30;;;;;;;7.18;3.15;;;;;;;7.74;81.34;93885.75;4988944;28;20304;-73
2023/04/15 00:41:58;;;;;;;5.47;3.00;;;;;;;7.82;80.61;93894.88;4992017;28;20209;-73
2023/04/15 00:44:25;;;;;;;5.35;3.00;;;;;;;7.83;80.08;93897.25;4976266;28;20209;-72
2023/04/15 00:46:52;;;;;;;7.15;2.65;;;;;;;7.75;79.93;93890.03;4991917;28;20643;-73
2023/04/15 00:49:20;;;;;;;4.63;2.42;;;;;;;7.74;79.95;93899.22;4979163;28;20206;-72
2023/04/15 00:51:47;;;;;;;4.20;2.53;;;;;;;7.74;79.88;93888.44;4991652;28;20563;-72
2023/04/15 00:54:14;;;;;;;5.70;2.45;;;;;;;7.63;80.73;93903.41;4979400;28;20202;-73
2023/04/15 00:56:42;;;;;;;5.28;2.78;;;;;;;6.97;81.22;93851.16;4991347;28;20213;-73
2023/04/15 00:59:09;;;;;;;7.88;2.72;;;;;;;7.18;82.60;93910.47;4987504;28;20269;-73
2023/04/15 01:01:37;;;;;;;3.42;2.10;;;;;;;7.30;83.51;93899.78;4983681;28;20198;-72
2023/04/15 01:04:05;;;;;;;7.22;2.85;;;;;;;7.39;83.41;93909.41;4980673;28;20256;-72
2023/04/15 01:06:33;;;;;;;3.30;2.20;;;;;;;7.58;82.76;93905.50;4990670;28;20277;-73
2023/04/15 01:09:00;;;;;;;4.25;2.20;;;;;;;7.59;82.94;93907.88;4965939;28;20694;-72
2023/04/15 01:11:28;;;;;;;19.85;3.60;;;;;;;7.70;83.21;93909.06;4976958;28;20197;-72
2023/04/15 01:13:58;;;;;;;6.32;2.88;;;;;;;7.68;83.91;93905.91;4982461;28;20204;-72
2023/04/15 01:16:26;;;;;;;5.43;2.47;;;;;;;7.83;83.26;93897.25;4991219;28;20206;-72
2023/04/15 01:18:53;;;;;;;4.13;2.35;;;;;;;7.76;83.65;93883.50;4972259;28;20209;-71
2023/04/15 01:21:21;;;;;;;5.57;2.78;;;;;;;7.78;83.46;93889.38;4984815;28;20295;-73
2023/04/15 01:23:48;;;;;;;4.30;2.60;;;;;;;7.68;84.01;93889.72;4971537;28;20206;-72
2023/04/15 01:26:17;;;;;;;6.15;3.20;;;;;;;7.37;86.05;93895.47;4983934;28;20212;-72
2023/04/15 01:28:44;;;;;;;5.30;3.00;;;;;;;7.19;87.23;93883.22;4964059;28;20522;-73
2023/04/15 01:31:13;;;;;;;3.55;2.45;;;;;;;7.07;88.29;93885.81;4983287;28;20195;-74
2023/04/15 01:33:42;;;;;;;5.63;2.33;;;;;;;6.85;88.69;93840.25;4977582;28;20271;-72
2023/04/15 01:36:10;;;;;;;5.22;3.03;;;;;;;7.22;88.48;93887.16;4984453;28;20206;-73
2023/04/15 01:38:37;;;;;;;5.15;2.97;;;;;;;7.05;88.67;93888.03;4963241;28;20207;-72
2023/04/15 01:41:06;;;;;;;4.55;2.80;;;;;;;6.99;89.70;93890.09;4983250;28;20213;-73
2023/04/15 01:43:34;;;;;;;4.00;2.70;;;;;;;6.86;90.30;93901.84;4978707;28;20680;-72
2023/04/15 01:46:01;;;;;;;6.20;2.55;;;;;;;6.84;90.77;93892.53;4974244;28;20212;-73
2023/04/15 01:48:28;;;;;;;5.70;2.50;;;;;;;6.81;91.39;93904.75;4990198;28;20230;-72
2023/04/15 01:50:56;;;;;;;9.50;3.22;;;;;;;6.76;91.50;93907.59;4971255;28;20222;-72
2023/04/15 01:53:24;;;;;;;3.85;2.78;;;;;;;6.63;92.46;93903.19;4962473;28;20198;-73
2023/04/15 01:55:51;;;;;;;6.10;3.22;;;;;;;6.77;92.17;93914.56;4987978;28;20220;-72
2023/04/15 01:58:18;;;;;;;4.18;2.83;;;;;;;6.82;91.41;93908.22;4990240;28;20206;-73
2023/04/15 02:00:46;;;;;;;6.25;2.85;;;;;;;6.93;90.71;93909.44;4988758;28;20210;-73
2023/04/15 02:03:13;;;;;;;3.13;2.00;;;;;;;6.96;90.66;93917.69;4980645;28;20203;-73
2023/04/15 02:05:43;;;;;;;4.13;2.08;;;;;;;6.84;91.39;93912.16;4970573;28;20210;-71
2023/04/15 02:08:11;;;;;;;2.67;1.90;;;;;;;6.94;91.01;93906.44;4977933;28;20312;-72
2023/04/15 02:10:37;;;;;;;2.53;1.60;;;;;;;7.03;90.56;93901.81;4988686;28;20297;-72
2023/04/15 02:13:04;;;;;;;4.40;2.20;;;;;;;6.94;91.20;93906.44;4978068;28;20206;-73
2023/04/15 02:15:32;;;;;;;2.67;1.63;;;;;;;6.64;91.73;93904.78;4989139;28;20212;-72
2023/04/15 02:18:00;;;;;;;3.03;1.90;;;;;;;6.37;92.79;93909.41;4989968;28;20209;-73
2023/04/15 02:20:29;;;;;;;2.45;1.75;;;;;;;6.41;92.76;93901.50;4989555;28;20297;-71
2023/04/15 02:22:56;;;;;;;2.55;1.73;;;;;;;6.51;92.63;93900.38;4982774;28;20199;-73
2023/04/15 02:25:23;;;;;;;4.57;1.73;;;;;;;6.45;92.57;93896.25;4977563;28;20206;-74
2023/04/15 02:27:49;;;;;;;2.38;1.38;;;;;;;6.35;93.89;93900.88;4989876;28;20233;-73
2023/04/15 02:30:16;;;;;;;4.53;2.88;;;;;;;6.59;92.69;93899.56;4980047;28;20205;-73
2023/04/15 02:32:43;;;;;;;4.80;2.72;;;;;;;6.37;93.24;93895.97;4979744;28;20201;-73
2023/04/15 02:35:12;;;;;;;5.80;3.03;;;;;;;6.25;94.19;93895.03;4990270;28;20326;-73
2023/04/15 02:37:44;;;;;;;7.03;3.40;;;;;;;6.12;95.11;93887.94;4988434;28;20206;-73
2023/04/15 02:40:12;;;;;;;6.45;3.67;;;;;;;6.06;95.89;93887.28;4989877;28;20235;-73
2023/04/15 02:42:39;;;;;;;6.95;3.75;;;;;;;5.89;95.90;93884.59;4974703;28;20206;-73
2023/04/15 02:45:07;;;;;;;7.07;4.15;;;;;;;5.82;95.79;93914.63;4969808;28;20327;-73
2023/04/15 02:47:34;;;;;;;7.32;4.10;;;;;;;5.85;95.98;93908.63;4958801;28;20238;-73
2023/04/15 02:50:02;;;;;;;6.90;3.80;;;;;;;5.85;96.22;93911.31;4989459;28;20206;-73
2023/04/15 02:52:30;;;;;;;7.68;3.40;;;;;;;5.83;96.38;93896.59;4986250;28;20217;-73
2023/04/15 02:55:01;;;;;;;7.72;4.10;;;;;;;5.72;95.25;93883.47;4979605;28;20205;-73
2023/04/15 02:57:31;;;;;;;6.88;3.97;;;;;;;5.83;95.24;93918.09;4989208;28;20227;-73
2023/04/15 02:59:58;;;;;;;6.93;3.40;;;;;;;5.69;95.20;93919.03;4989561;28;20221;-73
2023/04/15 03:02:25;;;;;;;5.65;3.38;;;;;;;5.69;95.53;93919.03;4986251;28;20257;-72
2023/04/15 03:04:52;;;;;;;7.30;4.35;;;;;;;5.58;94.49;93901.63;4979226;28;20205;-73
2023/04/15 03:07:18;;;;;;;5.93;4.00;;;;;;;5.55;94.52;93913.00;4975361;28;20253;-72
2023/04/15 03:09:47;;;;;;;1.73;1.63;;;;;;;5.60;94.10;93930.88;4977497;28;20302;-74
2023/04/15 03:12:14;;;;;;;4.82;2.53;;;;;;;5.30;94.61;93945.97;4985695;28;20217;-73
2023/04/15 03:14:41;;;;;;;6.03;2.90;;;;;;;5.31;96.21;93929.53;4980008;28;20210;-73
2023/04/15 03:17:08;;;;;;;5.07;2.53;;;;;;;5.40;96.24;93936.81;4989004;28;20261;-73
2023/04/15 03:19:35;;;;;;;4.00;2.20;;;;;;;5.29;96.46;93952.44;4977222;28;20209;-73
2023/04/15 03:22:02;;;;;;;3.90;2.58;;;;;;;5.17;97.12;93944.16;4987586;28;20212;-74
2023/04/15 03:24:29;;;;;;;4.30;2.35;;;;;;;5.24;98.07;93939.13;4969503;28;20256;-73
2023/04/15 03:26:57;;;;;;;4.68;2.28;;;;;;;4.95;97.66;93894.81;4962526;28;20625;-73
2023/04/15 03:29:24;;;;;;;5.03;3.00;;;;;;;5.15;97.71;93925.69;4985612;28;20264;-72
2023/04/15 03:31:52;;;;;;;10.68;6.03;;;;;;;5.24;97.44;93949.88;4963581;28;20205;-73
2023/04/15 03:34:19;;;;;;;8.50;5.10;;;;;;;5.21;97.02;93958.53;4984296;28;20201;-72
2023/04/15 03:36:46;;;;;;;9.23;5.28;;;;;;;4.94;97.25;93940.75;4988655;28;20210;-73
2023/04/15 03:39:13;;;;;;;11.00;5.68;;;;;;;4.87;97.82;93946.56;4988719;28;20733;-73
2023/04/15 03:41:40;;;;;;;13.07;5.50;;;;;;;5.02;98.60;93968.72;4981286;28;20220;-73
2023/04/15 03:44:08;;;;;;;8.75;5.50;;;;;;;4.87;98.52;93943.88;4983181;28;20212;-73
2023/04/15 03:46:35;;;;;;;10.10;5.38;;;;;;;5.21;98.48;93978.13;4988879;28;20264;-73
2023/04/15 03:49:02;;;;;;;9.13;5.43;;;;;;;5.14;97.94;93987.72;4989149;28;20249;-74
2023/04/15 03:51:30;;;;;;;5.53;2.80;;;;;;;5.21;97.40;93982.69;4973663;28;21048;-73
2023/04/15 03:53:57;;;;;;;6.43;2.90;;;;;;;5.30;96.78;93988.91;4975679;28;20202;-73
2023/04/15 03:56:24;;;;;;;3.70;2.70;;;;;;;5.22;96.70;93989.66;4992925;28;20288;-73
2023/04/15 03:58:51;;;;;;;3.42;2.65;;;;;;;5.51;95.75;93987.25;4979922;28;20301;-73
2023/04/15 04:01:19;;;;;;;5.47;2.55;;;;;;;6.15;94.52;93979.47;4992883;28;20209;-73
2023/04/15 04:03:46;;;;;;;6.60;2.92;;;;;;;6.72;90.87;93955.09;4981200;28;20882;-74
2023/04/15 04:06:13;;;;;;;3.72;2.67;;;;;;;7.59;86.39;93945.59;4992641;28;20234;-74
2023/04/15 04:08:40;;;;;;;5.25;3.08;;;;;;;8.45;82.25;93976.66;4989406;28;20260;-73
2023/04/15 04:11:06;;;;;;;6.55;3.33;;;;;;;9.32;78.27;93976.59;4982127;28;20201;-73
2023/04/15 04:13:33;;;;;;;6.15;2.67;;;;;;;9.92;74.34;93960.41;4980183;28;20561;-73
2023/04/15 04:16:00;;;;;;;5.07;2.95;;;;;;;10.53;72.27;93954.88;4983101;28;20289;-73
2023/04/15 04:18:28;;;;;;;7.30;3.80;;;;;;;11.51;70.45;93966.03;4992835;28;20259;-73
2023/04/15 04:20:55;;;;;;;8.07;3.47;;;;;;;11.37;67.89;93961.03;4982023;28;20234;-73
2023/04/15 04:23:22;;;;;;;6.38;3.83;;;;;;;10.85;70.08;93949.59;4966192;28;20700;-73
2023/04/15 04:25:49;;;;;;;7.57;4.45;;;;;;;11.19;67.57;93957.09;4983569;28;20745;-72
2023/04/15 04:28:15;;;;;;;9.23;4.63;;;;;;;11.00;70.18;93946.13;4979206;28;20232;-72
2023/04/15 04:30:42;;;;;;;8.68;5.22;;;;;;;12.63;67.73;93941.09;4989121;28;20672;-73
2023/04/15 04:33:09;;;;;;;8.13;5.80;;;;;;;13.78;62.36;93942.88;4987322;28;20268;-74
2023/04/15 04:35:37;;;;;;;7.35;3.97;;;;;;;14.49;59.76;93939.28;4992016;28;20237;-73
2023/04/15 04:38:05;;;;;;;7.40;4.43;;;;;;;15.33;57.19;93940.69;4992656;28;20624;-73
2023/04/15 04:40:32;;;;;;;9.23;4.50;;;;;;;15.84;56.77;93937.31;4992426;28;20216;-72
2023/04/15 04:42:58;;;;;;;8.45;4.30;;;;;;;15.30;55.31;93927.81;4972499;28;20642;-72
2023/04/15 04:45:26;;;;;;;7.15;4.07;;;;;;;16.10;54.53;93956.25;4984534;28;20292;-72
2023/04/15 04:47:53;;;;;;;12.93;6.47;;;;;;;15.38;55.77;93967.63;4991725;28;20242;-73
2023/04/15 04:50:19;;;;;;;8.10;5.18;;;;;;;14.89;56.21;93968.66;4991622;28;20695;-72
2023/04/15 04:52:48;;;;;;;7.55;4.28;;;;;;;14.55;56.49;93964.28;4985208;28;20865;-73
2023/04/15 04:55:14;;;;;;;8.98;4.80;;;;;;;14.71;55.97;93955.94;4985139;28;20205;-72
2023/04/15 04:57:41;;;;;;;7.18;4.55;;;;;;;15.57;55.79;93966.69;4985439;28;20784;-72
2023/04/15 05:00:09;;;;;;;16.00;5.32;;;;;;;16.17;54.86;93971.91;4984269;28;20345;-73
2023/04/15 05:02:36;;;;;;;8.40;5.00;;;;;;;17.18;51.09;93956.50;4960818;28;20218;-72
2023/04/15 05:05:03;;;;;;;19.40;9.95;;;;;;;17.62;47.97;93963.66;4985518;28;20213;-72
2023/04/15 05:07:30;;;;;;;7.60;4.85;;;;;;;18.06;48.19;93974.31;4991078;28;20249;-72
2023/04/15 05:09:58;;;;;;;10.90;5.53;;;;;;;19.03;44.77;93973.81;4991008;28;20213;-74
2023/04/15 05:12:25;;;;;;;9.20;4.60;;;;;;;19.09;43.00;93977.72;4976265;28;20270;-73
2023/04/15 05:14:52;;;;;;;6.38;4.15;;;;;;;19.93;42.13;93969.50;4972880;28;20202;-72
2023/04/15 05:17:19;;;;;;;8.63;4.55;;;;;;;19.93;43.31;93991.50;4991516;28;20567;-72
2023/04/15 05:19:45;;;;;;;5.72;3.75;;;;;;;20.53;41.26;93991.06;4990982;28;20665;-72
2023/04/15 05:22:12;;;;;;;6.65;4.22;;;;;;;20.61;40.73;93994.53;4989963;28;20255;-72
2023/04/15 05:24:39;;;;;;;8.05;5.18;;;;;;;21.15;39.17;93990.06;4971517;28;20198;-71
2023/04/15 05:27:09;;;;;;;8.85;5.43;;;;;;;21.87;37.87;93959.63;4971465;28;20610;-72
2023/04/15 05:29:36;;;;;;;7.80;5.20;;;;;;;19.96;41.40;93984.38;4980894;28;20696;-72
2023/04/15 05:32:03;;;;;;;8.95;5.35;;;;;;;20.70;38.49;93956.31;4978994;28;20206;-73
2023/04/15 05:34:30;;;;;;;7.15;4.60;;;;;;;21.38;37.68;93961.09;4985173;28;20198;-72
2023/04/15 05:36:57;;;;;;;5.78;4.15;;;;;;;21.18;37.20;93980.97;4981541;28;20257;-72
2023/04/15 05:39:24;;;;;;;7.32;4.60;;;;;;;21.87;35.72;93965.94;4986103;28;20213;-72
2023/04/15 05:41:50;;;;;;;9.73;4.88;;;;;;;21.61;35.33;93972.97;4990470;28;20206;-72
2023/04/15 05:44:19;;;;;;;9.07;5.25;;;;;;;18.01;41.21;93985.69;4973804;28;20210;-72
2023/04/15 05:46:46;;;;;;;9.25;4.65;;;;;;;17.70;42.03;93977.00;4980094;28;20221;-71
2023/04/15 05:49:12;;;;;;;9.65;4.40;;;;;;;19.40;40.00;93961.53;4990205;28;20738;-73
2023/04/15 05:51:39;;;;;;;10.27;4.90;;;;;;;19.70;39.00;93971.97;4990171;28;20213;-73
2023/04/15 05:54:06;;;;;;;8.32;4.90;;;;;;;18.61;40.77;93995.88;4976571;28;20217;-72
2023/04/15 05:56:33;;;;;;;8.40;5.00;;;;;;;20.54;38.33;93991.84;4980638;28;20210;-72
2023/04/15 05:59:00;;;;;;;9.30;5.13;;;;;;;19.45;39.14;93988.56;4986979;28;20216;-73
2023/04/15 06:01:29;;;;;;;8.93;4.63;;;;;;;19.96;38.89;94001.66;4980989;28;20211;-74
2023/04/15 06:03:59;;;;;;;7.30;4.47;;;;;;;18.71;40.63;94006.06;4972206;28;20210;-72
2023/04/15 06:06:26;;;;;;;7.43;4.40;;;;;;;19.18;40.07;93997.31;4980744;28;20313;-72
2023/04/15 06:08:54;;;;;;;6.45;3.60;;;;;;;18.37;40.68;94017.41;4977247;28;20244;-72
2023/04/15 06:11:21;;;;;;;5.63;3.50;;;;;;;16.33;44.35;94027.88;4990279;28;20210;-73
2023/04/15 06:13:48;;;;;;;7.93;3.20;;;;;;;17.15;43.17;94027.63;4980391;28;20197;-72
2023/04/15 06:16:15;;;;;;;28.80;14.52;;;;;;;18.62;40.79;94022.13;4989967;28;20549;-72
2023/04/15 06:18:43;;;;;;;7.88;3.42;;;;;;;19.18;39.74;94013.78;4984911;28;20213;-72
2023/04/15 06:21:10;;;;;;;5.82;3.15;;;;;;;18.87;40.13;94017.38;4982188;28;20309;-72
2023/04/15 06:23:39;;;;;;;5.53;4.10;;;;;;;18.62;40.09;94025.66;4976978;28;20297;-74
2023/04/15 06:26:09;;;;;;;8.07;4.13;;;;;;;17.69;42.00;94010.25;4982684;28;20236;-73
2023/04/15 06:28:36;;;;;;;8.90;4.38;;;;;;;19.49;39.73;94033.31;4964278;28;20333;-73
2023/04/15 06:31:03;;;;;;;9.02;3.60;;;;;;;21.65;36.38;94022.56;4986804;28;20206;-73
2023/04/15 06:33:33;;;;;;;5.13;3.38;;;;;;;23.08;34.27;94015.72;4984707;28;20206;-73
2023/04/15 06:36:04;;;;;;;5.95;3.80;;;;;;;21.21;35.40;94013.22;4989695;28;20205;-72
2023/04/15 06:38:31;;;;;;;6.18;3.53;;;;;;;20.14;37.52;94037.31;4990096;28;20193;-73
2023/04/15 06:40:58;;;;;;;6.07;4.03;;;;;;;20.11;37.85;94019.63;4989376;28;20260;-72
2023/04/15 06:43:26;;;;;;;4.88;3.70;;;;;;;21.66;36.25;94034.38;4974506;28;20202;-72
2023/04/15 06:45:53;;;;;;;5.40;3.63;;;;;;;21.28;36.03;94004.91;4972532;28;20257;-73
2023/04/15 06:48:19;;;;;;;5.50;3.80;;;;;;;20.17;37.42;94042.78;4974004;28;20222;-72
2023/04/15 06:50:46;;;;;;;5.97;3.35;;;;;;;20.49;37.24;94028.84;4969975;28;20218;-73
2023/04/15 06:53:15;;;;;;;8.10;3.58;;;;;;;20.68;36.50;94043.22;4969156;28;20217;-71
2023/04/15 06:55:42;;;;;;;5.68;3.60;;;;;;;20.04;37.60;94043.66;4972247;28;20209;-73
2023/04/15 06:58:08;;;;;;;9.65;3.88;;;;;;;20.53;36.95;94037.84;4988438;28;20645;-73
2023/04/15 07:00:37;;;;;;;6.03;3.13;;;;;;;20.20;37.20;94038.47;4972470;28;20214;-73
2023/04/15 07:03:04;;;;;;;4.47;3.05;;;;;;;19.43;38.35;94045.88;4968269;28;20195;-72
2023/04/15 07:05:32;;;;;;;6.93;3.80;;;;;;;19.15;39.52;94053.00;4969682;28;20474;-73
2023/04/15 07:07:59;;;;;;;4.88;3.60;;;;;;;19.56;38.38;94055.25;4968171;28;20233;-72
2023/04/15 07:10:27;;;;;;;5.25;3.55;;;;;;;19.03;39.02;94061.66;4986077;28;20210;-73
2023/04/15 07:12:54;;;;;;;5.72;3.42;;;;;;;18.98;39.60;94047.56;4978511;28;20661;-74
2023/04/15 07:15:21;;;;;;;6.68;3.80;;;;;;;19.98;37.90;94048.78;4986840;28;20213;-73
2023/04/15 07:17:48;;;;;;;8.75;3.70;;;;;;;18.75;39.90;94054.25;4988861;28;20217;-73
2023/04/15 07:20:14;;;;;;;6.15;3.13;;;;;;;20.07;38.76;94045.63;4988186;28;20267;-74
2023/04/15 07:22:41;;;;;;;7.93;4.25;;;;;;;20.43;37.54;94048.94;4976900;28;20251;-74
2023/04/15 07:25:09;;;;;;;6.88;3.60;;;;;;;20.53;37.03;94034.31;4974417;28;20198;-74
2023/04/15 07:27:37;;;;;;;5.70;3.58;;;;;;;20.71;36.60;94020.41;4976837;28;20206;-74
2023/04/15 07:30:04;;;;;;;10.15;3.35;;;;;;;20.86;36.26;94052.13;4984664;28;20241;-74
2023/04/15 07:32:31;;;;;;;5.60;3.58;;;;;;;21.18;36.25;94049.81;4971011;28;20265;-74
2023/04/15 07:34:58;;;;;;;5.75;3.08;;;;;;;20.55;37.04;94045.69;4987717;28;20668;-74
2023/04/15 07:37:25;;;;;;;6.78;3.15;;;;;;;20.16;37.69;94054.97;4988681;28;20212;-72
2023/04/15 07:39:53;;;;;;;3.75;2.72;;;;;;;19.40;38.36;94061.19;4988997;28;20271;-74
2023/04/15 07:42:20;;;;;;;5.22;2.58;;;;;;;17.68;41.49;94061.53;4986214;28;20204;-75
2023/04/15 07:44:48;;;;;;;6.18;2.90;;;;;;;17.34;42.50;94057.47;4976908;28;20210;-75
2023/04/15 07:47:15;;;;;;;5.93;3.08;;;;;;;17.92;41.60;94051.03;4989074;28;20598;-78
2023/04/15 07:49:43;;;;;;;8.55;2.58;;;;;;;17.49;43.00;94067.31;4963010;28;20331;-78
2023/04/15 07:52:10;;;;;;;8.70;3.10;;;;;;;17.39;44.03;94070.75;4979696;28;20206;-73
2023/04/15 07:54:37;;;;;;;12.13;3.10;;;;;;;16.70;44.25;94070.75;4971381;28;20207;-72
2023/04/15 07:57:03;;;;;;;4.68;3.00;;;;;;;15.57;46.50;94079.44;4982413;28;20759;-72
2023/04/15 07:59:32;;;;;;;5.85;3.28;;;;;;;16.17;45.52;94078.47;4977538;28;20237;-72
2023/04/15 08:02:00;;;;;;;6.75;3.60;;;;;;;15.62;46.24;94070.88;4987929;28;20228;-72
2023/04/15 08:04:27;;;;;;;4.45;2.97;;;;;;;15.84;45.84;94082.06;4968560;28;20619;-75
2023/04/15 08:06:54;;;;;;;7.28;3.42;;;;;;;15.75;46.78;94078.81;4956006;28;20805;-73
2023/04/15 08:09:21;;;;;;;6.38;3.13;;;;;;;15.44;47.27;94064.41;4988268;28;20296;-74
2023/04/15 08:11:49;;;;;;;5.82;2.78;;;;;;;15.38;46.19;94043.28;4972578;28;20221;-73
2023/04/15 08:14:16;;;;;;;5.70;2.67;;;;;;;15.78;45.73;94078.88;4966513;28;20292;-74
2023/04/15 08:16:44;;;;;;;3.85;2.50;;;;;;;15.52;45.04;94093.38;4983463;28;20210;-72
2023/04/15 08:19:12;;;;;;;5.15;2.58;;;;;;;16.13;44.34;94088.56;4979524;28;20671;-73
2023/04/15 08:21:39;;;;;;;3.05;2.40;;;;;;;16.25;44.27;94078.19;4983618;28;20198;-74
2023/04/15 08:24:07;;;;;;;6.35;2.72;;;;;;;15.79;45.50;94091.38;4971368;28;20206;-75
2023/04/15 08:26:34;;;;;;;8.50;3.10;;;;;;;14.47;48.40;94093.44;4984879;28;20704;-73
2023/04/15 08:29:00;;;;;;;3.97;2.67;;;;;;;14.82;47.84;94087.72;4988071;28;20287;-74
2023/04/15 08:31:32;;;;;;;2.63;2.15;;;;;;;14.81;46.99;94081.50;4981953;28;20900;-73
2023/04/15 08:33:59;;;;;;;3.80;2.10;;;;;;;15.10;44.19;94054.63;4982431;28;20668;-73
2023/04/15 08:36:31;;;;;;;3.28;1.85;;;;;;;15.78;43.55;94067.16;4987853;28;20737;-74
2023/04/15 08:39:00;;;;;;;3.45;2.80;;;;;;;15.82;44.15;94037.94;4983027;28;20210;-74
2023/04/15 08:41:33;;;;;;;3.58;2.25;;;;;;;16.37;43.36;94068.13;4991078;28;20662;-73
2023/04/15 08:44:03;;;;;;;5.82;2.60;;;;;;;17.05;43.30;94043.63;4988173;28;20921;-74
2023/04/15 08:46:32;;;;;;;3.40;1.85;;;;;;;17.38;41.17;94061.75;4966792;28;20194;-75
2023/04/15 08:48:59;;;;;;;2.45;1.60;;;;;;;17.49;39.11;94063.78;4978212;28;20234;-74
2023/04/15 08:51:28;;;;;;;5.40;2.17;;;;;;;17.45;39.04;94036.38;4990959;28;20217;-75
2023/04/15 08:53:57;;;;;;;2.17;1.50;;;;;;;17.32;39.31;94054.31;4977927;28;20199;-75
2023/04/15 08:56:27;;;;;;;2.35;1.33;;;;;;;17.67;37.79;94038.03;4991387;28;20212;-74
2023/04/15 08:58:56;;;;;;;2.35;1.20;;;;;;;17.89;36.36;94032.63;4991268;28;20256;-75
2023/04/15 09:01:25;;;;;;;3.05;1.30;;;;;;;17.55;38.16;94005.50;4991231;28;20202;-75
2023/04/15 09:03:53;;;;;;;3.47;1.38;;;;;;;17.79;37.57;94041.59;4979712;28;20541;-74
2023/04/15 09:06:21;;;;;;;3.47;1.63;;;;;;;17.50;37.72;94033.25;4991039;28;20236;-72
2023/04/15 09:08:49;;;;;;;4.88;1.60;;;;;;;17.01;40.05;94045.56;4991583;28;20212;-72
2023/04/15 09:11:16;;;;;;;3.03;1.85;;;;;;;17.35;40.05;94032.44;4991202;28;20210;-73
2023/04/15 09:13:47;;;;;;;2.70;1.60;;;;;;;17.66;39.33;94020.03;4977929;28;20560;-72
2023/04/15 09:16:14;;;;;;;4.53;2.00;;;;;;;16.99;39.27;94042.41;4991339;28;20649;-76
2023/04/15 09:18:41;;;;;;;2.35;1.50;;;;;;;17.00;39.56;94027.56;4986236;28;20213;-73
2023/04/15 09:21:10;;;;;;;3.85;1.70;;;;;;;16.48;40.28;94014.31;4982869;28;20201;-74
2023/04/15 09:23:38;;;;;;;1.92;1.30;;;;;;;15.98;39.00;94022.09;4978528;28;20209;-74
2023/04/15 09:26:06;;;;;;;3.13;1.40;;;;;;;15.84;39.51;94032.91;4984214;28;20210;-74
2023/04/15 09:28:34;;;;;;;1.50;1.15;;;;;;;16.06;39.30;94025.69;4984822;28;20638;-74
2023/04/15 09:31:02;;;;;;;3.85;1.40;;;;;;;17.03;38.71;94037.75;4984649;28;20225;-74
2023/04/15 09:33:30;;;;;;;3.47;1.30;;;;;;;17.63;36.31;94020.81;4962648;28;20244;-72
2023/04/15 09:35:59;;;;;;;2.97;1.20;;;;;;;17.53;35.42;94018.78;4984398;28;20202;-74
2023/04/15 09:38:26;;;;;;;2.53;1.20;;;;;;;18.54;34.69;94028.78;4963862;28;20717;-74
2023/04/15 09:40:55;;;;;;;2.10;0.82;;;;;;;19.34;33.97;94020.78;4979341;28;20221;-75
2023/04/15 09:43:24;;;;;;;2.78;1.05;;;;;;;19.70;32.31;94010.44;4987211;28;20349;-73
2023/04/15 09:45:55;;;;;;;1.63;1.00;;;;;;;19.97;30.81;94011.47;4989869;28;20210;-73
2023/04/15 09:48:25;;;;;;;1.50;1.05;;;;;;;20.32;30.52;94024.22;4981718;28;20728;-74
2023/04/15 09:50:52;;;;;;;3.53;0.90;;;;;;;19.28;30.99;94027.88;4984196;28;20691;-76
2023/04/15 09:53:21;;;;;;;1.85;0.85;;;;;;;18.48;33.87;94015.44;4970123;28;20677;-72
2023/04/15 09:55:50;;;;;;;1.50;0.73;;;;;;;18.61;32.02;94029.56;4987028;28;20205;-72
2023/04/15 09:58:22;;;;;;;1.40;0.70;;;;;;;18.92;30.50;94033.47;4980515;28;20214;-74
2023/04/15 10:00:52;;;;;;;1.02;0.60;;;;;;;19.37;29.84;94028.25;4987925;28;20209;-76
2023/04/15 10:03:21;;;;;;;1.52;0.80;;;;;;;19.29;29.92;94024.72;4979757;28;20206;-73
2023/04/15 10:05:49;;;;;;;0.95;0.70;;;;;;;19.13;30.70;94011.44;4984195;28;20313;-73
2023/04/15 10:08:18;;;;;;;3.67;1.20;;;;;;;18.66;30.43;94009.19;4958989;28;20318;-72
2023/04/15 10:10:46;;;;;;;3.15;1.30;;;;;;;18.51;31.19;94005.66;4983167;28;20242;-72
2023/04/15 10:13:14;;;;;;;1.42;0.98;;;;;;;18.50;31.82;94012.31;4973612;28;20213;-72
2023/04/15 10:15:44;;;;;;;2.35;1.10;;;;;;;18.36;33.40;93991.16;4983674;28;20241;-73
2023/04/15 10:18:16;;;;;;;2.60;1.20;;;;;;;18.46;32.32;93998.59;4957734;28;20211;-74
2023/04/15 10:20:43;;;;;;;2.47;0.90;;;;;;;19.07;33.40;93996.56;4990403;28;20245;-75
2023/04/15 10:23:12;;;;;;;1.88;0.90;;;;;;;19.33;32.66;93980.78;4980148;28;20209;-74
2023/04/15 10:25:39;;;;;;;2.38;1.25;;;;;;;19.93;31.70;93985.22;4979827;28;20209;-74
2023/04/15 10:28:07;;;;;;;3.45;1.13;;;;;;;19.71;31.26;93985.31;4989748;28;20212;-75
2023/04/15 10:30:34;;;;;;;3.90;0.88;;;;;;;19.02;32.40;93985.19;4977661;28;20653;-73
2023/04/15 10:33:01;;;;;;;4.40;1.58;;;;;;;19.22;32.20;93980.03;4977124;28;20971;-71
2023/04/15 10:35:31;;;;;;;3.53;1.00;;;;;;;18.70;32.04;93966.06;4970552;28;20206;-72
2023/04/15 10:37:59;;;;;;;4.38;1.30;;;;;;;19.23;32.99;93992.59;4986871;28;20237;-73
2023/04/15 10:40:28;;;;;;;1.45;1.00;;;;;;;19.77;31.18;93972.72;4989454;28;20706;-74
2023/04/15 10:42:55;;;;;;;3.05;1.17;;;;;;;19.66;31.46;93944.53;4972256;28;20293;-73
2023/04/15 10:45:26;;;;;;;1.60;0.80;;;;;;;19.70;31.27;93972.75;4980377;28;20268;-72
2023/04/15 10:47:55;;;;;;;6.32;1.08;;;;;;;18.78;32.14;93981.34;4989312;28;20229;-73
2023/04/15 10:50:22;;;;;;;1.70;1.30;;;;;;;19.32;32.15;93985.47;4977219;28;20241;-74
2023/04/15 10:52:52;;;;;;;1.45;0.82;;;;;;;20.26;31.42;93983.78;4982597;28;20225;-74
2023/04/15 10:55:21;;;;;;;1.88;0.93;;;;;;;20.63;30.65;93972.13;4970359;28;20206;-75
2023/04/15 10:57:53;;;;;;;3.45;1.15;;;;;;;20.88;29.10;93967.94;4969144;28;20662;-73
2023/04/15 11:00:24;;;;;;;0.80;0.70;;;;;;;20.18;28.38;93952.81;4980116;28;20229;-73
2023/04/15 11:02:54;;;;;;;1.85;0.80;;;;;;;20.38;30.03;93967.59;4970054;28;20206;-75
2023/04/15 11:05:22;;;;;;;1.92;0.70;;;;;;;20.20;28.00;93955.94;4975367;28;20230;-76
2023/04/15 11:07:55;;;;;;;4.32;0.90;;;;;;;20.39;29.92;93962.88;4962451;28;20241;-74
2023/04/15 11:10:53;;;;;;;5.68;1.20;;;;;;;20.71;31.42;93971.63;4970835;28;20224;-72
2023/04/15 11:13:26;;;;;;;1.70;1.00;;;;;;;21.04;27.71;93959.09;4961958;28;20401;-73
2023/04/15 11:15:57;;;;;;;0.95;0.60;;;;;;;20.89;27.10;93965.97;4964075;28;20234;-74
2023/04/15 11:18:25;;;;;;;1.17;0.70;;;;;;;20.48;27.87;93961.25;4970823;28;20201;-72
2023/04/15 11:20:54;;;;;;;2.38;1.00;;;;;;;20.72;28.09;93970.44;4965190;28;20210;-72
2023/04/15 11:23:29;;;;;;;1.25;0.80;;;;;;;20.14;28.24;93958.34;4967555;28;20206;-73
2023/04/15 11:25:56;;;;;;;4.15;0.90;;;;;;;20.24;28.42;93959.44;4967587;28;20297;-73
2023/04/15 11:28:26;;;;;;;1.20;0.70;;;;;;;20.79;28.65;93964.84;4974185;28;20211;-72
2023/04/15 11:30:54;;;;;;;1.70;0.90;;;;;;;20.53;28.04;93966.28;4967213;28;20775;-73
2023/04/15 11:33:22;;;;;;;3.53;1.20;;;;;;;20.21;28.97;93963.00;4968889;28;20209;-71
2023/04/15 11:35:49;;;;;;;1.90;1.00;;;;;;;20.11;28.31;93969.34;4967463;28;20308;-75
2023/04/15 11:38:16;;;;;;;0.60;0.60;;;;;;;20.09;29.14;93963.50;4974864;28;20607;-74